Terminal Aerodrome Forecast
Issued by NWS

Home | Current Version | Previous Version | Text Only | Print | Product List | Glossary On
Versions: 1 2 3 4 5 6 7 8 9 10 11 12 13 14 15 16 17 18 19 20 21 22 23 24 25 26 27
000
FTUS45 KBYZ 221738
TAFLVM
TAF
KLVM 221738Z 2218/2318 23045G60KT P6SM BKN060 OVC100
     FM230000 27025G45KT P6SM SCT060
     FM231200 24025G35KT P6SM SCT060=

USA.gov is the U.S. government's official web portal to all federal, state and local government web resources and services.